sensor_id;sensor_type;location;lat;lon;timestamp;P1;durP1;ratioP1;P2;durP2;ratioP2
27265;SDS011;14766;51.380;13.762;2022-07-18T00:02:19;2.88;;;1.20;;
27265;SDS011;14766;51.380;13.762;2022-07-18T00:04:47;1.25;;;0.95;;
27265;SDS011;14766;51.380;13.762;2022-07-18T00:07:14;2.03;;;1.10;;
27265;SDS011;14766;51.380;13.762;2022-07-18T00:09:42;2.10;;;1.20;;
27265;SDS011;14766;51.380;13.762;2022-07-18T00:12:09;2.40;;;1.00;;
27265;SDS011;14766;51.380;13.762;2022-07-18T00:14:38;2.33;;;1.10;;
27265;SDS011;14766;51.380;13.762;2022-07-18T00:17:06;1.52;;;1.00;;
27265;SDS011;14766;51.380;13.762;2022-07-18T00:19:33;1.27;;;1.02;;
27265;SDS011;14766;51.380;13.762;2022-07-18T00:22:02;3.35;;;1.23;;
27265;SDS011;14766;51.380;13.762;2022-07-18T00:24:29;2.13;;;1.25;;
27265;SDS011;14766;51.380;13.762;2022-07-18T00:26:59;2.15;;;1.00;;
27265;SDS011;14766;51.380;13.762;2022-07-18T00:29:26;4.30;;;1.17;;
27265;SDS011;14766;51.380;13.762;2022-07-18T00:31:54;3.28;;;0.88;;
27265;SDS011;14766;51.380;13.762;2022-07-18T00:34:21;2.17;;;1.23;;
27265;SDS011;14766;51.380;13.762;2022-07-18T00:36:49;2.08;;;1.00;;
27265;SDS011;14766;51.380;13.762;2022-07-18T00:39:16;1.65;;;1.08;;
27265;SDS011;14766;51.380;13.762;2022-07-18T00:41:49;2.10;;;1.27;;
27265;SDS011;14766;51.380;13.762;2022-07-18T00:44:21;1.25;;;0.90;;
27265;SDS011;14766;51.380;13.762;2022-07-18T00:46:50;2.50;;;1.02;;
27265;SDS011;14766;51.380;13.762;2022-07-18T00:49:19;1.55;;;1.00;;
27265;SDS011;14766;51.380;13.762;2022-07-18T00:51:46;2.22;;;1.05;;
27265;SDS011;14766;51.380;13.762;2022-07-18T00:54:13;2.28;;;1.20;;
27265;SDS011;14766;51.380;13.762;2022-07-18T00:56:41;3.83;;;1.40;;
27265;SDS011;14766;51.380;13.762;2022-07-18T00:59:09;1.13;;;0.90;;
27265;SDS011;14766;51.380;13.762;2022-07-18T01:01:37;3.38;;;1.27;;
27265;SDS011;14766;51.380;13.762;2022-07-18T01:04:18;3.67;;;1.52;;
27265;SDS011;14766;51.380;13.762;2022-07-18T01:06:47;2.90;;;1.23;;
27265;SDS011;14766;51.380;13.762;2022-07-18T01:09:16;2.08;;;1.15;;
27265;SDS011;14766;51.380;13.762;2022-07-18T01:11:44;3.40;;;1.60;;
27265;SDS011;14766;51.380;13.762;2022-07-18T01:14:13;2.33;;;1.45;;
27265;SDS011;14766;51.380;13.762;2022-07-18T01:16:41;3.03;;;1.02;;
27265;SDS011;14766;51.380;13.762;2022-07-18T01:19:09;3.72;;;1.30;;
27265;SDS011;14766;51.380;13.762;2022-07-18T01:21:37;2.90;;;1.42;;
27265;SDS011;14766;51.380;13.762;2022-07-18T01:24:05;4.32;;;1.17;;
27265;SDS011;14766;51.380;13.762;2022-07-18T01:26:33;2.42;;;1.45;;
27265;SDS011;14766;51.380;13.762;2022-07-18T01:29:02;1.58;;;1.08;;
27265;SDS011;14766;51.380;13.762;2022-07-18T01:31:30;2.33;;;1.30;;
27265;SDS011;14766;51.380;13.762;2022-07-18T01:34:00;2.15;;;1.20;;
27265;SDS011;14766;51.380;13.762;2022-07-18T01:36:28;2.90;;;1.25;;
27265;SDS011;14766;51.380;13.762;2022-07-18T01:38:56;1.75;;;1.27;;
27265;SDS011;14766;51.380;13.762;2022-07-18T01:41:23;4.28;;;1.35;;
27265;SDS011;14766;51.380;13.762;2022-07-18T01:43:50;1.55;;;1.23;;
27265;SDS011;14766;51.380;13.762;2022-07-18T01:46:17;2.28;;;1.20;;
27265;SDS011;14766;51.380;13.762;2022-07-18T01:48:45;1.70;;;1.00;;
27265;SDS011;14766;51.380;13.762;2022-07-18T01:51:12;2.45;;;1.40;;
27265;SDS011;14766;51.380;13.762;2022-07-18T01:53:40;3.28;;;1.30;;
27265;SDS011;14766;51.380;13.762;2022-07-18T01:56:08;3.33;;;1.27;;
27265;SDS011;14766;51.380;13.762;2022-07-18T01:58:39;2.05;;;1.00;;
27265;SDS011;14766;51.380;13.762;2022-07-18T02:01:05;2.40;;;1.10;;
27265;SDS011;14766;51.380;13.762;2022-07-18T02:03:33;2.22;;;1.40;;
27265;SDS011;14766;51.380;13.762;2022-07-18T02:06:00;3.40;;;1.10;;
27265;SDS011;14766;51.380;13.762;2022-07-18T02:08:27;2.33;;;1.00;;
27265;SDS011;14766;51.380;13.762;2022-07-18T02:10:54;1.90;;;1.05;;
27265;SDS011;14766;51.380;13.762;2022-07-18T02:13:21;4.57;;;1.17;;
27265;SDS011;14766;51.380;13.762;2022-07-18T02:15:49;1.67;;;1.10;;
27265;SDS011;14766;51.380;13.762;2022-07-18T02:18:17;3.92;;;1.30;;
27265;SDS011;14766;51.380;13.762;2022-07-18T02:20:44;3.75;;;1.38;;
27265;SDS011;14766;51.380;13.762;2022-07-18T02:23:12;2.20;;;1.02;;
27265;SDS011;14766;51.380;13.762;2022-07-18T02:25:39;1.90;;;1.23;;
27265;SDS011;14766;51.380;13.762;2022-07-18T02:28:06;2.30;;;1.10;;
27265;SDS011;14766;51.380;13.762;2022-07-18T02:30:34;2.35;;;1.30;;
27265;SDS011;14766;51.380;13.762;2022-07-18T02:33:01;2.50;;;1.17;;
27265;SDS011;14766;51.380;13.762;2022-07-18T02:35:28;2.45;;;1.10;;
27265;SDS011;14766;51.380;13.762;2022-07-18T02:37:55;1.92;;;1.10;;
27265;SDS011;14766;51.380;13.762;2022-07-18T02:40:22;3.15;;;1.23;;
27265;SDS011;14766;51.380;13.762;2022-07-18T02:42:49;2.63;;;1.20;;
27265;SDS011;14766;51.380;13.762;2022-07-18T02:45:17;1.90;;;1.25;;
27265;SDS011;14766;51.380;13.762;2022-07-18T02:47:44;1.92;;;1.13;;
27265;SDS011;14766;51.380;13.762;2022-07-18T02:50:12;3.72;;;1.20;;
27265;SDS011;14766;51.380;13.762;2022-07-18T02:52:40;2.25;;;1.10;;
27265;SDS011;14766;51.380;13.762;2022-07-18T02:55:08;2.72;;;1.35;;
27265;SDS011;14766;51.380;13.762;2022-07-18T02:57:36;3.33;;;1.40;;
27265;SDS011;14766;51.380;13.762;2022-07-18T03:00:09;1.70;;;1.00;;
27265;SDS011;14766;51.380;13.762;2022-07-18T03:02:39;3.78;;;1.15;;
27265;SDS011;14766;51.380;13.762;2022-07-18T03:05:06;2.38;;;1.10;;
27265;SDS011;14766;51.380;13.762;2022-07-18T03:07:34;2.03;;;1.30;;
27265;SDS011;14766;51.380;13.762;2022-07-18T03:10:02;1.52;;;1.27;;
27265;SDS011;14766;51.380;13.762;2022-07-18T03:12:31;3.80;;;1.25;;
27265;SDS011;14766;51.380;13.762;2022-07-18T03:14:59;1.58;;;1.20;;
27265;SDS011;14766;51.380;13.762;2022-07-18T03:17:26;4.47;;;1.40;;
27265;SDS011;14766;51.380;13.762;2022-07-18T03:19:53;2.20;;;1.30;;
27265;SDS011;14766;51.380;13.762;2022-07-18T03:22:20;4.55;;;1.70;;
27265;SDS011;14766;51.380;13.762;2022-07-18T03:24:47;1.92;;;1.58;;
27265;SDS011;14766;51.380;13.762;2022-07-18T03:27:15;2.55;;;1.50;;
27265;SDS011;14766;51.380;13.762;2022-07-18T03:29:42;2.05;;;1.30;;
27265;SDS011;14766;51.380;13.762;2022-07-18T03:32:10;4.47;;;1.40;;
27265;SDS011;14766;51.380;13.762;2022-07-18T03:34:37;2.25;;;1.42;;
27265;SDS011;14766;51.380;13.762;2022-07-18T03:37:04;3.13;;;1.38;;
27265;SDS011;14766;51.380;13.762;2022-07-18T03:39:31;3.92;;;1.40;;
27265;SDS011;14766;51.380;13.762;2022-07-18T03:41:58;1.45;;;1.20;;
27265;SDS011;14766;51.380;13.762;2022-07-18T03:44:25;3.42;;;1.38;;
27265;SDS011;14766;51.380;13.762;2022-07-18T03:46:53;1.77;;;1.27;;
27265;SDS011;14766;51.380;13.762;2022-07-18T03:49:21;1.58;;;1.13;;
27265;SDS011;14766;51.380;13.762;2022-07-18T03:51:48;3.25;;;1.40;;
27265;SDS011;14766;51.380;13.762;2022-07-18T03:54:15;3.03;;;1.20;;
27265;SDS011;14766;51.380;13.762;2022-07-18T03:56:43;1.60;;;1.45;;
27265;SDS011;14766;51.380;13.762;2022-07-18T03:59:10;2.88;;;1.45;;
27265;SDS011;14766;51.380;13.762;2022-07-18T04:01:38;2.65;;;1.50;;
27265;SDS011;14766;51.380;13.762;2022-07-18T04:04:05;2.08;;;1.30;;
27265;SDS011;14766;51.380;13.762;2022-07-18T04:06:33;1.90;;;1.60;;
27265;SDS011;14766;51.380;13.762;2022-07-18T04:09:00;3.13;;;1.70;;
27265;SDS011;14766;51.380;13.762;2022-07-18T04:11:27;3.03;;;1.40;;
27265;SDS011;14766;51.380;13.762;2022-07-18T04:13:54;5.75;;;2.10;;
27265;SDS011;14766;51.380;13.762;2022-07-18T04:16:22;2.97;;;1.30;;
27265;SDS011;14766;51.380;13.762;2022-07-18T04:18:50;2.45;;;1.35;;
27265;SDS011;14766;51.380;13.762;2022-07-18T04:21:17;2.85;;;1.75;;
27265;SDS011;14766;51.380;13.762;2022-07-18T04:23:45;1.52;;;1.20;;
27265;SDS011;14766;51.380;13.762;2022-07-18T04:26:13;3.17;;;1.35;;
27265;SDS011;14766;51.380;13.762;2022-07-18T04:28:40;1.50;;;1.15;;
27265;SDS011;14766;51.380;13.762;2022-07-18T04:31:07;2.25;;;1.35;;
27265;SDS011;14766;51.380;13.762;2022-07-18T04:33:34;1.95;;;1.50;;
27265;SDS011;14766;51.380;13.762;2022-07-18T04:36:02;1.88;;;1.33;;
27265;SDS011;14766;51.380;13.762;2022-07-18T04:38:29;1.90;;;1.50;;
27265;SDS011;14766;51.380;13.762;2022-07-18T04:41:00;1.60;;;1.30;;
27265;SDS011;14766;51.380;13.762;2022-07-18T04:43:29;3.15;;;1.40;;
27265;SDS011;14766;51.380;13.762;2022-07-18T04:45:56;1.95;;;1.40;;
27265;SDS011;14766;51.380;13.762;2022-07-18T04:48:23;3.53;;;1.90;;
27265;SDS011;14766;51.380;13.762;2022-07-18T04:50:51;2.67;;;1.42;;
27265;SDS011;14766;51.380;13.762;2022-07-18T04:53:19;2.28;;;1.45;;
27265;SDS011;14766;51.380;13.762;2022-07-18T04:55:46;2.15;;;1.45;;
27265;SDS011;14766;51.380;13.762;2022-07-18T04:58:13;2.00;;;1.60;;
27265;SDS011;14766;51.380;13.762;2022-07-18T05:00:40;3.22;;;1.98;;
27265;SDS011;14766;51.380;13.762;2022-07-18T05:03:08;4.28;;;2.22;;
27265;SDS011;14766;51.380;13.762;2022-07-18T05:05:35;4.03;;;3.15;;
27265;SDS011;14766;51.380;13.762;2022-07-18T05:08:03;6.45;;;4.10;;
27265;SDS011;14766;51.380;13.762;2022-07-18T05:10:32;8.40;;;4.95;;
27265;SDS011;14766;51.380;13.762;2022-07-18T05:13:00;8.38;;;4.90;;
27265;SDS011;14766;51.380;13.762;2022-07-18T05:15:27;7.70;;;5.00;;
27265;SDS011;14766;51.380;13.762;2022-07-18T05:17:55;6.32;;;4.15;;
27265;SDS011;14766;51.380;13.762;2022-07-18T05:20:24;8.65;;;4.50;;
27265;SDS011;14766;51.380;13.762;2022-07-18T05:22:52;6.63;;;4.13;;
27265;SDS011;14766;51.380;13.762;2022-07-18T05:25:20;6.25;;;4.13;;
27265;SDS011;14766;51.380;13.762;2022-07-18T05:27:50;6.68;;;4.40;;
27265;SDS011;14766;51.380;13.762;2022-07-18T05:30:18;5.05;;;3.78;;
27265;SDS011;14766;51.380;13.762;2022-07-18T05:32:46;6.00;;;3.92;;
27265;SDS011;14766;51.380;13.762;2022-07-18T05:35:14;6.75;;;4.03;;
27265;SDS011;14766;51.380;13.762;2022-07-18T05:37:41;6.97;;;4.03;;
27265;SDS011;14766;51.380;13.762;2022-07-18T05:40:09;6.70;;;3.47;;
27265;SDS011;14766;51.380;13.762;2022-07-18T05:42:38;5.32;;;3.58;;
27265;SDS011;14766;51.380;13.762;2022-07-18T05:45:24;4.95;;;3.45;;
27265;SDS011;14766;51.380;13.762;2022-07-18T05:47:52;8.07;;;3.67;;
27265;SDS011;14766;51.380;13.762;2022-07-18T05:50:21;6.53;;;3.65;;
27265;SDS011;14766;51.380;13.762;2022-07-18T05:52:49;8.88;;;3.17;;
27265;SDS011;14766;51.380;13.762;2022-07-18T05:55:17;5.38;;;3.05;;
27265;SDS011;14766;51.380;13.762;2022-07-18T05:57:45;4.78;;;2.95;;
27265;SDS011;14766;51.380;13.762;2022-07-18T06:00:12;4.32;;;2.63;;
27265;SDS011;14766;51.380;13.762;2022-07-18T06:02:40;6.80;;;3.03;;
27265;SDS011;14766;51.380;13.762;2022-07-18T06:05:09;4.25;;;2.72;;
27265;SDS011;14766;51.380;13.762;2022-07-18T06:07:53;4.75;;;2.63;;
27265;SDS011;14766;51.380;13.762;2022-07-18T06:10:22;3.83;;;2.42;;
27265;SDS011;14766;51.380;13.762;2022-07-18T06:12:50;3.90;;;2.50;;
27265;SDS011;14766;51.380;13.762;2022-07-18T06:15:18;4.65;;;3.22;;
27265;SDS011;14766;51.380;13.762;2022-07-18T06:17:47;4.10;;;2.70;;
27265;SDS011;14766;51.380;13.762;2022-07-18T06:20:14;3.85;;;2.60;;
27265;SDS011;14766;51.380;13.762;2022-07-18T06:22:41;6.38;;;3.20;;
27265;SDS011;14766;51.380;13.762;2022-07-18T06:25:09;5.88;;;2.85;;
27265;SDS011;14766;51.380;13.762;2022-07-18T06:27:38;5.45;;;3.10;;
27265;SDS011;14766;51.380;13.762;2022-07-18T06:30:05;5.13;;;2.63;;
27265;SDS011;14766;51.380;13.762;2022-07-18T06:32:35;3.00;;;2.28;;
27265;SDS011;14766;51.380;13.762;2022-07-18T06:35:02;3.22;;;2.17;;
27265;SDS011;14766;51.380;13.762;2022-07-18T06:37:29;2.88;;;1.90;;
27265;SDS011;14766;51.380;13.762;2022-07-18T06:39:57;3.92;;;2.15;;
27265;SDS011;14766;51.380;13.762;2022-07-18T06:42:28;4.00;;;2.22;;
27265;SDS011;14766;51.380;13.762;2022-07-18T06:44:57;5.68;;;2.60;;
27265;SDS011;14766;51.380;13.762;2022-07-18T06:47:24;4.65;;;1.92;;
27265;SDS011;14766;51.380;13.762;2022-07-18T06:49:51;5.10;;;2.60;;
27265;SDS011;14766;51.380;13.762;2022-07-18T06:52:18;3.85;;;2.05;;
27265;SDS011;14766;51.380;13.762;2022-07-18T06:54:47;3.67;;;2.10;;
27265;SDS011;14766;51.380;13.762;2022-07-18T06:57:14;5.25;;;2.10;;
27265;SDS011;14766;51.380;13.762;2022-07-18T06:59:42;4.65;;;2.45;;
27265;SDS011;14766;51.380;13.762;2022-07-18T07:02:15;4.20;;;1.83;;
27265;SDS011;14766;51.380;13.762;2022-07-18T07:04:42;4.30;;;1.95;;
27265;SDS011;14766;51.380;13.762;2022-07-18T07:07:09;5.70;;;1.77;;
27265;SDS011;14766;51.380;13.762;2022-07-18T07:09:36;2.63;;;1.60;;
27265;SDS011;14766;51.380;13.762;2022-07-18T07:12:04;2.40;;;1.58;;
27265;SDS011;14766;51.380;13.762;2022-07-18T07:14:32;3.55;;;1.83;;
27265;SDS011;14766;51.380;13.762;2022-07-18T07:17:00;4.30;;;1.70;;
27265;SDS011;14766;51.380;13.762;2022-07-18T07:19:27;2.67;;;1.58;;
27265;SDS011;14766;51.380;13.762;2022-07-18T07:21:54;3.72;;;1.58;;
27265;SDS011;14766;51.380;13.762;2022-07-18T07:24:22;4.03;;;1.58;;
27265;SDS011;14766;51.380;13.762;2022-07-18T07:26:49;2.95;;;1.80;;
27265;SDS011;14766;51.380;13.762;2022-07-18T07:29:21;2.17;;;1.20;;
27265;SDS011;14766;51.380;13.762;2022-07-18T07:31:49;2.53;;;1.38;;
27265;SDS011;14766;51.380;13.762;2022-07-18T07:34:16;4.20;;;1.58;;
27265;SDS011;14766;51.380;13.762;2022-07-18T07:36:43;3.53;;;1.83;;
27265;SDS011;14766;51.380;13.762;2022-07-18T07:39:11;3.65;;;1.70;;
27265;SDS011;14766;51.380;13.762;2022-07-18T07:41:38;2.92;;;1.50;;
27265;SDS011;14766;51.380;13.762;2022-07-18T07:44:05;2.83;;;1.80;;
27265;SDS011;14766;51.380;13.762;2022-07-18T07:46:32;6.45;;;2.10;;
27265;SDS011;14766;51.380;13.762;2022-07-18T07:49:00;4.47;;;1.80;;
27265;SDS011;14766;51.380;13.762;2022-07-18T07:51:27;3.83;;;1.92;;
27265;SDS011;14766;51.380;13.762;2022-07-18T07:54:01;7.32;;;1.90;;
27265;SDS011;14766;51.380;13.762;2022-07-18T07:56:28;3.10;;;1.77;;
27265;SDS011;14766;51.380;13.762;2022-07-18T07:58:55;3.58;;;1.70;;
27265;SDS011;14766;51.380;13.762;2022-07-18T08:01:22;5.07;;;2.30;;
27265;SDS011;14766;51.380;13.762;2022-07-18T08:03:50;2.55;;;1.80;;
27265;SDS011;14766;51.380;13.762;2022-07-18T08:06:17;3.97;;;1.80;;
27265;SDS011;14766;51.380;13.762;2022-07-18T08:08:45;3.30;;;1.45;;
27265;SDS011;14766;51.380;13.762;2022-07-18T08:11:15;2.60;;;1.20;;
27265;SDS011;14766;51.380;13.762;2022-07-18T08:13:43;3.55;;;1.50;;
27265;SDS011;14766;51.380;13.762;2022-07-18T08:16:11;3.08;;;1.40;;
27265;SDS011;14766;51.380;13.762;2022-07-18T08:18:38;1.80;;;1.10;;
27265;SDS011;14766;51.380;13.762;2022-07-18T08:21:05;4.40;;;1.35;;
27265;SDS011;14766;51.380;13.762;2022-07-18T08:23:32;2.03;;;1.27;;
27265;SDS011;14766;51.380;13.762;2022-07-18T08:26:00;4.40;;;1.70;;
27265;SDS011;14766;51.380;13.762;2022-07-18T08:28:27;3.17;;;1.20;;
27265;SDS011;14766;51.380;13.762;2022-07-18T08:30:54;2.58;;;1.20;;
27265;SDS011;14766;51.380;13.762;2022-07-18T08:33:21;3.10;;;1.10;;
27265;SDS011;14766;51.380;13.762;2022-07-18T08:35:48;3.22;;;1.13;;
27265;SDS011;14766;51.380;13.762;2022-07-18T08:38:16;2.03;;;0.90;;
27265;SDS011;14766;51.380;13.762;2022-07-18T08:40:43;1.75;;;1.05;;
27265;SDS011;14766;51.380;13.762;2022-07-18T08:43:14;1.63;;;0.98;;
27265;SDS011;14766;51.380;13.762;2022-07-18T08:45:51;1.65;;;0.90;;
27265;SDS011;14766;51.380;13.762;2022-07-18T08:48:23;1.67;;;0.77;;
27265;SDS011;14766;51.380;13.762;2022-07-18T08:50:50;1.98;;;0.90;;
27265;SDS011;14766;51.380;13.762;2022-07-18T08:53:17;5.13;;;1.33;;
27265;SDS011;14766;51.380;13.762;2022-07-18T08:55:45;0.93;;;0.70;;
27265;SDS011;14766;51.380;13.762;2022-07-18T08:58:13;7.28;;;1.25;;
27265;SDS011;14766;51.380;13.762;2022-07-18T09:01:01;2.33;;;1.08;;
27265;SDS011;14766;51.380;13.762;2022-07-18T09:03:30;2.05;;;1.27;;
27265;SDS011;14766;51.380;13.762;2022-07-18T09:06:08;2.03;;;0.90;;
27265;SDS011;14766;51.380;13.762;2022-07-18T09:08:38;1.63;;;0.90;;
27265;SDS011;14766;51.380;13.762;2022-07-18T09:11:23;2.50;;;1.05;;
27265;SDS011;14766;51.380;13.762;2022-07-18T09:14:26;1.55;;;0.88;;
27265;SDS011;14766;51.380;13.762;2022-07-18T09:17:20;2.38;;;0.95;;
27265;SDS011;14766;51.380;13.762;2022-07-18T09:22:30;1.52;;;0.93;;
27265;SDS011;14766;51.380;13.762;2022-07-18T09:27:45;1.35;;;0.98;;
27265;SDS011;14766;51.380;13.762;2022-07-18T09:30:30;2.60;;;0.90;;
27265;SDS011;14766;51.380;13.762;2022-07-18T09:35:51;2.78;;;1.10;;
27265;SDS011;14766;51.380;13.762;2022-07-18T09:38:18;1.60;;;0.90;;
27265;SDS011;14766;51.380;13.762;2022-07-18T09:40:48;2.33;;;1.30;;
27265;SDS011;14766;51.380;13.762;2022-07-18T09:43:18;1.60;;;0.90;;
27265;SDS011;14766;51.380;13.762;2022-07-18T09:45:48;1.52;;;0.90;;
27265;SDS011;14766;51.380;13.762;2022-07-18T09:48:20;2.20;;;0.90;;
27265;SDS011;14766;51.380;13.762;2022-07-18T09:50:50;2.92;;;1.17;;
27265;SDS011;14766;51.380;13.762;2022-07-18T09:53:22;4.50;;;1.08;;
27265;SDS011;14766;51.380;13.762;2022-07-18T09:58:34;1.98;;;1.10;;
27265;SDS011;14766;51.380;13.762;2022-07-18T10:01:03;1.88;;;1.33;;
27265;SDS011;14766;51.380;13.762;2022-07-18T10:03:32;3.33;;;1.25;;
27265;SDS011;14766;51.380;13.762;2022-07-18T10:06:00;4.00;;;1.60;;
27265;SDS011;14766;51.380;13.762;2022-07-18T10:08:30;2.33;;;1.50;;
27265;SDS011;14766;51.380;13.762;2022-07-18T10:10:59;1.75;;;1.30;;
27265;SDS011;14766;51.380;13.762;2022-07-18T10:13:28;1.92;;;1.10;;
27265;SDS011;14766;51.380;13.762;2022-07-18T10:15:56;3.15;;;1.15;;
27265;SDS011;14766;51.380;13.762;2022-07-18T10:18:28;2.00;;;1.02;;
27265;SDS011;14766;51.380;13.762;2022-07-18T10:23:40;5.15;;;1.10;;
27265;SDS011;14766;51.380;13.762;2022-07-18T10:31:23;3.30;;;1.55;;
27265;SDS011;14766;51.380;13.762;2022-07-18T10:36:35;4.32;;;1.00;;
27265;SDS011;14766;51.380;13.762;2022-07-18T11:00:06;2.55;;;1.35;;
27265;SDS011;14766;51.380;13.762;2022-07-18T11:02:42;3.13;;;1.05;;
27265;SDS011;14766;51.380;13.762;2022-07-18T11:18:23;2.45;;;1.40;;
27265;SDS011;14766;51.380;13.762;2022-07-18T11:20:50;3.15;;;1.48;;
27265;SDS011;14766;51.380;13.762;2022-07-18T11:23:19;2.17;;;1.38;;
27265;SDS011;14766;51.380;13.762;2022-07-18T11:25:50;3.15;;;1.60;;
27265;SDS011;14766;51.380;13.762;2022-07-18T11:28:25;1.30;;;1.10;;
27265;SDS011;14766;51.380;13.762;2022-07-18T11:33:46;2.15;;;1.48;;
27265;SDS011;14766;51.380;13.762;2022-07-18T11:36:15;2.10;;;1.60;;
27265;SDS011;14766;51.380;13.762;2022-07-18T11:38:55;3.95;;;1.45;;
27265;SDS011;14766;51.380;13.762;2022-07-18T11:41:25;2.15;;;1.30;;
27265;SDS011;14766;51.380;13.762;2022-07-18T11:43:53;2.72;;;1.60;;
27265;SDS011;14766;51.380;13.762;2022-07-18T11:46:22;2.90;;;1.50;;
27265;SDS011;14766;51.380;13.762;2022-07-18T11:49:02;3.85;;;1.83;;
27265;SDS011;14766;51.380;13.762;2022-07-18T11:51:36;1.75;;;1.20;;
27265;SDS011;14766;51.380;13.762;2022-07-18T11:54:05;3.55;;;1.50;;
27265;SDS011;14766;51.380;13.762;2022-07-18T11:56:33;4.40;;;1.40;;
27265;SDS011;14766;51.380;13.762;2022-07-18T11:59:12;2.88;;;1.25;;
27265;SDS011;14766;51.380;13.762;2022-07-18T12:01:39;3.67;;;1.33;;
27265;SDS011;14766;51.380;13.762;2022-07-18T12:04:07;4.50;;;1.42;;
27265;SDS011;14766;51.380;13.762;2022-07-18T12:06:45;2.53;;;1.20;;
27265;SDS011;14766;51.380;13.762;2022-07-18T12:09:33;2.50;;;1.40;;
27265;SDS011;14766;51.380;13.762;2022-07-18T12:12:08;2.20;;;1.33;;
27265;SDS011;14766;51.380;13.762;2022-07-18T12:14:56;3.03;;;1.45;;
27265;SDS011;14766;51.380;13.762;2022-07-18T12:17:25;1.38;;;1.25;;
27265;SDS011;14766;51.380;13.762;2022-07-18T12:20:07;1.92;;;1.25;;
27265;SDS011;14766;51.380;13.762;2022-07-18T12:25:56;4.00;;;1.30;;
27265;SDS011;14766;51.380;13.762;2022-07-18T12:28:25;2.35;;;1.40;;
27265;SDS011;14766;51.380;13.762;2022-07-18T12:30:53;1.85;;;1.30;;
27265;SDS011;14766;51.380;13.762;2022-07-18T12:33:26;1.83;;;1.30;;
27265;SDS011;14766;51.380;13.762;2022-07-18T12:35:54;1.17;;;1.08;;
27265;SDS011;14766;51.380;13.762;2022-07-18T12:38:24;2.85;;;1.48;;
27265;SDS011;14766;51.380;13.762;2022-07-18T12:40:58;1.35;;;1.10;;
27265;SDS011;14766;51.380;13.762;2022-07-18T12:43:35;2.70;;;1.17;;
27265;SDS011;14766;51.380;13.762;2022-07-18T12:46:06;2.08;;;1.10;;
27265;SDS011;14766;51.380;13.762;2022-07-18T12:48:35;1.35;;;1.10;;
27265;SDS011;14766;51.380;13.762;2022-07-18T12:51:05;1.98;;;1.25;;
27265;SDS011;14766;51.380;13.762;2022-07-18T12:53:38;1.25;;;1.15;;
27265;SDS011;14766;51.380;13.762;2022-07-18T12:56:07;2.17;;;1.60;;
27265;SDS011;14766;51.380;13.762;2022-07-18T12:58:35;3.45;;;1.30;;
27265;SDS011;14766;51.380;13.762;2022-07-18T13:01:02;2.88;;;1.67;;
27265;SDS011;14766;51.380;13.762;2022-07-18T13:03:33;3.28;;;1.52;;
27265;SDS011;14766;51.380;13.762;2022-07-18T13:06:01;3.35;;;1.48;;
27265;SDS011;14766;51.380;13.762;2022-07-18T13:08:28;2.42;;;1.58;;
27265;SDS011;14766;51.380;13.762;2022-07-18T13:10:55;1.85;;;1.55;;
27265;SDS011;14766;51.380;13.762;2022-07-18T13:13:24;2.65;;;1.65;;
27265;SDS011;14766;51.380;13.762;2022-07-18T13:15:51;2.47;;;1.33;;
27265;SDS011;14766;51.380;13.762;2022-07-18T13:18:20;2.72;;;1.40;;
27265;SDS011;14766;51.380;13.762;2022-07-18T13:20:48;2.10;;;1.48;;
27265;SDS011;14766;51.380;13.762;2022-07-18T13:23:16;1.77;;;1.40;;
27265;SDS011;14766;51.380;13.762;2022-07-18T13:25:44;2.67;;;1.38;;
27265;SDS011;14766;51.380;13.762;2022-07-18T13:28:11;2.33;;;1.50;;
27265;SDS011;14766;51.380;13.762;2022-07-18T13:30:39;2.03;;;1.40;;
27265;SDS011;14766;51.380;13.762;2022-07-18T13:33:08;2.00;;;1.40;;
27265;SDS011;14766;51.380;13.762;2022-07-18T13:35:38;1.80;;;1.33;;
27265;SDS011;14766;51.380;13.762;2022-07-18T13:38:06;1.80;;;1.40;;
27265;SDS011;14766;51.380;13.762;2022-07-18T13:40:34;1.70;;;1.33;;
27265;SDS011;14766;51.380;13.762;2022-07-18T13:43:01;2.17;;;1.45;;
27265;SDS011;14766;51.380;13.762;2022-07-18T13:45:28;2.53;;;1.30;;
27265;SDS011;14766;51.380;13.762;2022-07-18T13:47:56;6.43;;;1.50;;
27265;SDS011;14766;51.380;13.762;2022-07-18T13:50:24;2.97;;;1.45;;
27265;SDS011;14766;51.380;13.762;2022-07-18T13:52:51;4.20;;;1.55;;
27265;SDS011;14766;51.380;13.762;2022-07-18T13:55:20;1.80;;;1.15;;
27265;SDS011;14766;51.380;13.762;2022-07-18T13:57:47;1.83;;;1.20;;
27265;SDS011;14766;51.380;13.762;2022-07-18T14:00:15;3.03;;;1.40;;
27265;SDS011;14766;51.380;13.762;2022-07-18T14:02:44;1.90;;;1.20;;
27265;SDS011;14766;51.380;13.762;2022-07-18T14:05:12;1.73;;;1.27;;
27265;SDS011;14766;51.380;13.762;2022-07-18T14:07:44;2.42;;;1.33;;
27265;SDS011;14766;51.380;13.762;2022-07-18T14:10:12;2.95;;;1.60;;
27265;SDS011;14766;51.380;13.762;2022-07-18T14:12:40;2.90;;;1.60;;
27265;SDS011;14766;51.380;13.762;2022-07-18T14:15:08;1.60;;;1.27;;
27265;SDS011;14766;51.380;13.762;2022-07-18T14:17:35;2.92;;;1.63;;
27265;SDS011;14766;51.380;13.762;2022-07-18T14:20:02;6.18;;;1.88;;
27265;SDS011;14766;51.380;13.762;2022-07-18T14:22:32;2.33;;;1.25;;
27265;SDS011;14766;51.380;13.762;2022-07-18T14:25:02;1.58;;;1.10;;
27265;SDS011;14766;51.380;13.762;2022-07-18T14:27:32;2.30;;;1.40;;
27265;SDS011;14766;51.380;13.762;2022-07-18T14:30:00;1.58;;;1.30;;
27265;SDS011;14766;51.380;13.762;2022-07-18T14:32:28;1.48;;;1.30;;
27265;SDS011;14766;51.380;13.762;2022-07-18T14:34:55;1.90;;;1.35;;
27265;SDS011;14766;51.380;13.762;2022-07-18T14:37:22;1.90;;;1.40;;
27265;SDS011;14766;51.380;13.762;2022-07-18T14:39:50;1.30;;;1.10;;
27265;SDS011;14766;51.380;13.762;2022-07-18T14:42:22;2.65;;;1.05;;
27265;SDS011;14766;51.380;13.762;2022-07-18T14:44:50;2.40;;;1.30;;
27265;SDS011;14766;51.380;13.762;2022-07-18T14:47:18;2.35;;;1.40;;
27265;SDS011;14766;51.380;13.762;2022-07-18T14:49:45;3.15;;;1.40;;
27265;SDS011;14766;51.380;13.762;2022-07-18T14:52:13;1.50;;;1.08;;
27265;SDS011;14766;51.380;13.762;2022-07-18T14:54:40;3.42;;;1.55;;
27265;SDS011;14766;51.380;13.762;2022-07-18T14:57:07;2.08;;;1.35;;
27265;SDS011;14766;51.380;13.762;2022-07-18T14:59:35;2.22;;;1.40;;
27265;SDS011;14766;51.380;13.762;2022-07-18T15:02:03;3.17;;;1.58;;
27265;SDS011;14766;51.380;13.762;2022-07-18T15:04:33;2.35;;;1.27;;
27265;SDS011;14766;51.380;13.762;2022-07-18T15:07:03;3.17;;;1.20;;
27265;SDS011;14766;51.380;13.762;2022-07-18T15:09:32;1.83;;;1.30;;
27265;SDS011;14766;51.380;13.762;2022-07-18T15:12:00;1.50;;;1.00;;
27265;SDS011;14766;51.380;13.762;2022-07-18T15:14:28;4.18;;;1.30;;
27265;SDS011;14766;51.380;13.762;2022-07-18T15:16:56;1.45;;;1.20;;
27265;SDS011;14766;51.380;13.762;2022-07-18T15:19:23;5.22;;;1.50;;
27265;SDS011;14766;51.380;13.762;2022-07-18T15:21:50;2.08;;;1.40;;
27265;SDS011;14766;51.380;13.762;2022-07-18T15:24:18;1.83;;;1.40;;
27265;SDS011;14766;51.380;13.762;2022-07-18T15:26:45;2.40;;;1.20;;
27265;SDS011;14766;51.380;13.762;2022-07-18T15:29:12;2.10;;;1.35;;
27265;SDS011;14766;51.380;13.762;2022-07-18T15:31:39;1.50;;;1.20;;
27265;SDS011;14766;51.380;13.762;2022-07-18T15:34:07;1.48;;;1.20;;
27265;SDS011;14766;51.380;13.762;2022-07-18T15:36:34;2.22;;;1.40;;
27265;SDS011;14766;51.380;13.762;2022-07-18T15:39:01;2.28;;;1.05;;
27265;SDS011;14766;51.380;13.762;2022-07-18T15:41:32;3.38;;;1.25;;
27265;SDS011;14766;51.380;13.762;2022-07-18T15:44:00;1.20;;;1.10;;
27265;SDS011;14766;51.380;13.762;2022-07-18T15:46:28;2.08;;;1.42;;